sensor_id;sensor_type;location;lat;lon;timestamp;temperature;humidity
16907;DHT22;8570;52.380;4.654;2023-04-03T00:03:18;5.20;99.90
16907;DHT22;8570;52.380;4.654;2023-04-03T00:08:22;5.20;99.90
16907;DHT22;8570;52.380;4.654;2023-04-03T00:13:24;5.10;99.90
16907;DHT22;8570;52.380;4.654;2023-04-03T00:18:26;5.10;99.90
16907;DHT22;8570;52.380;4.654;2023-04-03T00:23:30;5.10;99.90
16907;DHT22;8570;52.380;4.654;2023-04-03T00:28:32;5.00;99.90
16907;DHT22;8570;52.380;4.654;2023-04-03T00:33:34;5.00;99.90
16907;DHT22;8570;52.380;4.654;2023-04-03T00:38:38;4.90;99.90
16907;DHT22;8570;52.380;4.654;2023-04-03T00:43:40;4.80;99.90
16907;DHT22;8570;52.380;4.654;2023-04-03T00:48:44;4.80;99.90
16907;DHT22;8570;52.380;4.654;2023-04-03T00:53:52;4.70;99.90
16907;DHT22;8570;52.380;4.654;2023-04-03T00:58:59;4.70;99.90
16907;DHT22;8570;52.380;4.654;2023-04-03T01:04:04;4.60;99.90
16907;DHT22;8570;52.380;4.654;2023-04-03T01:09:08;4.60;99.90
16907;DHT22;8570;52.380;4.654;2023-04-03T01:14:12;4.60;99.90
16907;DHT22;8570;52.380;4.654;2023-04-03T01:19:16;4.60;99.90
16907;DHT22;8570;52.380;4.654;2023-04-03T01:24:30;4.50;99.90
16907;DHT22;8570;52.380;4.654;2023-04-03T01:29:33;4.50;99.90
16907;DHT22;8570;52.380;4.654;2023-04-03T01:34:36;4.40;99.90
16907;DHT22;8570;52.380;4.654;2023-04-03T01:39:41;4.40;99.90
16907;DHT22;8570;52.380;4.654;2023-04-03T01:44:43;4.40;99.90
16907;DHT22;8570;52.380;4.654;2023-04-03T01:49:46;4.40;99.90
16907;DHT22;8570;52.380;4.654;2023-04-03T01:54:48;4.40;99.90
16907;DHT22;8570;52.380;4.654;2023-04-03T01:59:50;4.30;99.90
16907;DHT22;8570;52.380;4.654;2023-04-03T02:04:54;4.30;99.90
16907;DHT22;8570;52.380;4.654;2023-04-03T02:09:56;4.30;99.90
16907;DHT22;8570;52.380;4.654;2023-04-03T02:14:58;4.30;99.90
16907;DHT22;8570;52.380;4.654;2023-04-03T02:20:03;4.20;99.90
16907;DHT22;8570;52.380;4.654;2023-04-03T02:25:06;4.20;99.90
16907;DHT22;8570;52.380;4.654;2023-04-03T02:30:08;4.20;99.90
16907;DHT22;8570;52.380;4.654;2023-04-03T02:35:12;4.20;99.90
16907;DHT22;8570;52.380;4.654;2023-04-03T02:40:14;4.20;99.90
16907;DHT22;8570;52.380;4.654;2023-04-03T02:45:16;4.20;99.90
16907;DHT22;8570;52.380;4.654;2023-04-03T02:50:19;4.10;99.90
16907;DHT22;8570;52.380;4.654;2023-04-03T02:55:21;4.00;99.90
16907;DHT22;8570;52.380;4.654;2023-04-03T03:00:23;4.10;99.90
16907;DHT22;8570;52.380;4.654;2023-04-03T03:05:27;4.00;99.90
16907;DHT22;8570;52.380;4.654;2023-04-03T03:10:29;4.00;99.90
16907;DHT22;8570;52.380;4.654;2023-04-03T03:15:31;4.00;99.90
16907;DHT22;8570;52.380;4.654;2023-04-03T03:20:34;3.90;99.90
16907;DHT22;8570;52.380;4.654;2023-04-03T03:25:38;3.90;99.90
16907;DHT22;8570;52.380;4.654;2023-04-03T03:30:40;3.80;99.90
16907;DHT22;8570;52.380;4.654;2023-04-03T03:35:43;3.80;99.90
16907;DHT22;8570;52.380;4.654;2023-04-03T03:40:47;3.70;99.90
16907;DHT22;8570;52.380;4.654;2023-04-03T03:45:50;3.70;99.90
16907;DHT22;8570;52.380;4.654;2023-04-03T03:50:54;3.60;99.90
16907;DHT22;8570;52.380;4.654;2023-04-03T03:55:56;3.60;99.90
16907;DHT22;8570;52.380;4.654;2023-04-03T04:01:00;3.60;99.90
16907;DHT22;8570;52.380;4.654;2023-04-03T04:06:04;3.60;99.90
16907;DHT22;8570;52.380;4.654;2023-04-03T04:11:06;3.50;99.90
16907;DHT22;8570;52.380;4.654;2023-04-03T04:16:08;3.50;99.90
16907;DHT22;8570;52.380;4.654;2023-04-03T04:21:11;3.50;99.90
16907;DHT22;8570;52.380;4.654;2023-04-03T04:26:13;3.40;99.90
16907;DHT22;8570;52.380;4.654;2023-04-03T04:31:15;3.40;99.90
16907;DHT22;8570;52.380;4.654;2023-04-03T04:36:19;3.40;99.90
16907;DHT22;8570;52.380;4.654;2023-04-03T04:41:21;3.40;99.90
16907;DHT22;8570;52.380;4.654;2023-04-03T04:46:23;3.40;99.90
16907;DHT22;8570;52.380;4.654;2023-04-03T04:51:27;3.30;99.90
16907;DHT22;8570;52.380;4.654;2023-04-03T04:56:29;3.30;99.90
16907;DHT22;8570;52.380;4.654;2023-04-03T05:01:30;3.30;99.90
16907;DHT22;8570;52.380;4.654;2023-04-03T05:06:36;3.30;99.90
16907;DHT22;8570;52.380;4.654;2023-04-03T05:11:38;3.30;99.90
16907;DHT22;8570;52.380;4.654;2023-04-03T05:16:40;3.20;99.90
16907;DHT22;8570;52.380;4.654;2023-04-03T05:21:43;3.20;99.90
16907;DHT22;8570;52.380;4.654;2023-04-03T05:26:49;3.20;99.90
16907;DHT22;8570;52.380;4.654;2023-04-03T05:31:50;3.20;99.90
16907;DHT22;8570;52.380;4.654;2023-04-03T05:36:54;3.10;99.90
16907;DHT22;8570;52.380;4.654;2023-04-03T05:41:56;3.10;99.90
16907;DHT22;8570;52.380;4.654;2023-04-03T05:46:57;3.10;99.90
16907;DHT22;8570;52.380;4.654;2023-04-03T05:52:01;3.10;99.90
16907;DHT22;8570;52.380;4.654;2023-04-03T05:57:03;3.10;99.90
16907;DHT22;8570;52.380;4.654;2023-04-03T06:02:05;3.10;99.90
16907;DHT22;8570;52.380;4.654;2023-04-03T06:07:11;3.10;99.90
16907;DHT22;8570;52.380;4.654;2023-04-03T06:12:14;3.10;99.90
16907;DHT22;8570;52.380;4.654;2023-04-03T06:17:18;3.10;99.90
16907;DHT22;8570;52.380;4.654;2023-04-03T06:22:21;3.10;99.90
16907;DHT22;8570;52.380;4.654;2023-04-03T06:27:23;3.10;99.90
16907;DHT22;8570;52.380;4.654;2023-04-03T06:32:25;3.10;99.90
16907;DHT22;8570;52.380;4.654;2023-04-03T06:37:29;3.10;99.90
16907;DHT22;8570;52.380;4.654;2023-04-03T06:42:31;3.20;99.90
16907;DHT22;8570;52.380;4.654;2023-04-03T06:47:33;3.20;99.90
16907;DHT22;8570;52.380;4.654;2023-04-03T06:52:36;3.20;99.90
16907;DHT22;8570;52.380;4.654;2023-04-03T06:57:38;3.30;99.90
16907;DHT22;8570;52.380;4.654;2023-04-03T07:02:40;3.30;99.90
16907;DHT22;8570;52.380;4.654;2023-04-03T07:07:43;3.40;99.90
16907;DHT22;8570;52.380;4.654;2023-04-03T07:12:45;3.40;99.90
16907;DHT22;8570;52.380;4.654;2023-04-03T07:17:47;3.50;99.90
16907;DHT22;8570;52.380;4.654;2023-04-03T07:22:51;3.50;99.90
16907;DHT22;8570;52.380;4.654;2023-04-03T07:27:52;3.60;99.90
16907;DHT22;8570;52.380;4.654;2023-04-03T07:32:55;3.60;99.90
16907;DHT22;8570;52.380;4.654;2023-04-03T07:37:58;3.70;99.90
16907;DHT22;8570;52.380;4.654;2023-04-03T07:43:01;3.70;99.90
16907;DHT22;8570;52.380;4.654;2023-04-03T07:48:03;3.80;99.90
16907;DHT22;8570;52.380;4.654;2023-04-03T07:53:06;3.90;99.90
16907;DHT22;8570;52.380;4.654;2023-04-03T07:58:08;4.00;99.90
16907;DHT22;8570;52.380;4.654;2023-04-03T08:03:11;4.10;99.90
16907;DHT22;8570;52.380;4.654;2023-04-03T08:08:17;4.20;99.90
16907;DHT22;8570;52.380;4.654;2023-04-03T08:13:20;4.30;99.90
16907;DHT22;8570;52.380;4.654;2023-04-03T08:18:22;4.40;99.90
16907;DHT22;8570;52.380;4.654;2023-04-03T08:23:26;4.50;99.90
16907;DHT22;8570;52.380;4.654;2023-04-03T08:28:28;4.70;99.90
16907;DHT22;8570;52.380;4.654;2023-04-03T08:33:30;4.90;99.90
16907;DHT22;8570;52.380;4.654;2023-04-03T08:38:34;5.20;99.90
16907;DHT22;8570;52.380;4.654;2023-04-03T08:43:42;5.60;99.90
16907;DHT22;8570;52.380;4.654;2023-04-03T08:48:49;6.00;99.90
16907;DHT22;8570;52.380;4.654;2023-04-03T09:39:49;11.40;99.90
16907;DHT22;8570;52.380;4.654;2023-04-03T09:44:55;11.10;99.90
16907;DHT22;8570;52.380;4.654;2023-04-03T09:50:17;11.40;99.90
16907;DHT22;8570;52.380;4.654;2023-04-03T09:55:22;11.70;99.90
16907;DHT22;8570;52.380;4.654;2023-04-03T10:00:31;12.00;99.90
16907;DHT22;8570;52.380;4.654;2023-04-03T10:05:36;12.20;99.90
16907;DHT22;8570;52.380;4.654;2023-04-03T10:10:41;12.40;96.20
16907;DHT22;8570;52.380;4.654;2023-04-03T10:15:45;12.60;99.90
16907;DHT22;8570;52.380;4.654;2023-04-03T10:20:50;12.80;99.90
16907;DHT22;8570;52.380;4.654;2023-04-03T10:26:03;13.00;94.20
16907;DHT22;8570;52.380;4.654;2023-04-03T10:31:14;13.20;96.00
16907;DHT22;8570;52.380;4.654;2023-04-03T10:36:25;13.30;98.60
16907;DHT22;8570;52.380;4.654;2023-04-03T10:41:38;13.50;96.90
16907;DHT22;8570;52.380;4.654;2023-04-03T10:46:45;13.70;98.90
16907;DHT22;8570;52.380;4.654;2023-04-03T10:51:54;13.90;91.80
16907;DHT22;8570;52.380;4.654;2023-04-03T10:57:05;14.10;91.90
16907;DHT22;8570;52.380;4.654;2023-04-03T11:02:13;14.30;92.10
16907;DHT22;8570;52.380;4.654;2023-04-03T11:07:21;14.50;97.20
16907;DHT22;8570;52.380;4.654;2023-04-03T11:12:29;14.70;99.90
16907;DHT22;8570;52.380;4.654;2023-04-03T11:17:38;14.80;91.70
16907;DHT22;8570;52.380;4.654;2023-04-03T11:22:47;14.90;89.70
16907;DHT22;8570;52.380;4.654;2023-04-03T11:27:57;15.00;87.70
16907;DHT22;8570;52.380;4.654;2023-04-03T11:38:35;15.10;88.90
16907;DHT22;8570;52.380;4.654;2023-04-03T11:43:43;15.20;87.20
16907;DHT22;8570;52.380;4.654;2023-04-03T11:48:56;15.40;87.10
16907;DHT22;8570;52.380;4.654;2023-04-03T11:54:44;15.50;85.70
16907;DHT22;8570;52.380;4.654;2023-04-03T11:59:47;15.50;83.70
16907;DHT22;8570;52.380;4.654;2023-04-03T12:10:24;15.70;86.20
16907;DHT22;8570;52.380;4.654;2023-04-03T12:15:52;15.70;84.30
16907;DHT22;8570;52.380;4.654;2023-04-03T12:20:57;15.70;79.60
16907;DHT22;8570;52.380;4.654;2023-04-03T12:26:05;15.70;83.50
16907;DHT22;8570;52.380;4.654;2023-04-03T12:31:09;15.80;81.00
16907;DHT22;8570;52.380;4.654;2023-04-03T12:36:15;15.80;81.20
16907;DHT22;8570;52.380;4.654;2023-04-03T12:41:30;15.80;80.30
16907;DHT22;8570;52.380;4.654;2023-04-03T12:46:37;15.80;80.20
16907;DHT22;8570;52.380;4.654;2023-04-03T12:51:43;15.80;77.80
16907;DHT22;8570;52.380;4.654;2023-04-03T12:56:47;15.80;78.00
16907;DHT22;8570;52.380;4.654;2023-04-03T13:01:56;15.80;77.60
16907;DHT22;8570;52.380;4.654;2023-04-03T13:06:59;15.90;76.10
16907;DHT22;8570;52.380;4.654;2023-04-03T13:12:09;15.90;75.30
16907;DHT22;8570;52.380;4.654;2023-04-03T13:17:13;15.90;76.00
16907;DHT22;8570;52.380;4.654;2023-04-03T13:22:24;15.90;76.10
16907;DHT22;8570;52.380;4.654;2023-04-03T13:27:30;15.90;75.50
16907;DHT22;8570;52.380;4.654;2023-04-03T13:32:32;15.90;72.90
16907;DHT22;8570;52.380;4.654;2023-04-03T13:37:34;15.80;73.70
16907;DHT22;8570;52.380;4.654;2023-04-03T13:42:39;15.80;73.80
16907;DHT22;8570;52.380;4.654;2023-04-03T13:47:43;15.90;73.90
16907;DHT22;8570;52.380;4.654;2023-04-03T13:52:47;15.90;72.70
16907;DHT22;8570;52.380;4.654;2023-04-03T13:57:56;15.80;73.50
16907;DHT22;8570;52.380;4.654;2023-04-03T14:02:59;15.80;73.00
16907;DHT22;8570;52.380;4.654;2023-04-03T14:08:00;15.80;73.20
16907;DHT22;8570;52.380;4.654;2023-04-03T14:13:04;15.80;73.80
16907;DHT22;8570;52.380;4.654;2023-04-03T14:18:09;15.80;73.40
16907;DHT22;8570;52.380;4.654;2023-04-03T14:33:30;15.80;74.80
16907;DHT22;8570;52.380;4.654;2023-04-03T14:38:35;15.70;74.30
16907;DHT22;8570;52.380;4.654;2023-04-03T14:43:37;15.60;73.70
16907;DHT22;8570;52.380;4.654;2023-04-03T14:53:51;15.40;68.20
16907;DHT22;8570;52.380;4.654;2023-04-03T14:58:56;15.30;69.30
16907;DHT22;8570;52.380;4.654;2023-04-03T15:03:58;15.20;68.60
16907;DHT22;8570;52.380;4.654;2023-04-03T15:09:02;15.20;69.70
16907;DHT22;8570;52.380;4.654;2023-04-03T15:14:04;15.10;70.40
16907;DHT22;8570;52.380;4.654;2023-04-03T15:19:06;15.00;68.90
16907;DHT22;8570;52.380;4.654;2023-04-03T15:29:29;14.80;69.00
16907;DHT22;8570;52.380;4.654;2023-04-03T15:34:40;14.70;71.80
16907;DHT22;8570;52.380;4.654;2023-04-03T15:39:43;14.60;70.10
16907;DHT22;8570;52.380;4.654;2023-04-03T15:44:45;14.40;70.80
16907;DHT22;8570;52.380;4.654;2023-04-03T15:49:50;14.40;71.40
16907;DHT22;8570;52.380;4.654;2023-04-03T15:54:53;14.20;71.30
16907;DHT22;8570;52.380;4.654;2023-04-03T15:59:55;14.10;77.70
16907;DHT22;8570;52.380;4.654;2023-04-03T16:04:57;14.00;71.10
16907;DHT22;8570;52.380;4.654;2023-04-03T16:10:01;13.90;70.80
16907;DHT22;8570;52.380;4.654;2023-04-03T16:15:05;13.80;71.30
16907;DHT22;8570;52.380;4.654;2023-04-03T16:20:09;13.60;72.20
16907;DHT22;8570;52.380;4.654;2023-04-03T16:25:22;13.50;71.70
16907;DHT22;8570;52.380;4.654;2023-04-03T16:30:39;13.30;71.80
16907;DHT22;8570;52.380;4.654;2023-04-03T16:35:42;13.10;72.50
16907;DHT22;8570;52.380;4.654;2023-04-03T16:40:50;12.90;73.20
16907;DHT22;8570;52.380;4.654;2023-04-03T16:45:55;12.70;73.60
16907;DHT22;8570;52.380;4.654;2023-04-03T16:50:57;12.50;73.50
16907;DHT22;8570;52.380;4.654;2023-04-03T16:56:12;12.40;74.60
16907;DHT22;8570;52.380;4.654;2023-04-03T17:01:20;12.20;74.60
16907;DHT22;8570;52.380;4.654;2023-04-03T17:06:30;12.00;80.30
16907;DHT22;8570;52.380;4.654;2023-04-03T17:32:14;10.80;99.90
16907;DHT22;8570;52.380;4.654;2023-04-03T17:37:16;10.70;77.50
16907;DHT22;8570;52.380;4.654;2023-04-03T17:42:20;10.60;78.20
16907;DHT22;8570;52.380;4.654;2023-04-03T17:47:23;10.40;78.80
16907;DHT22;8570;52.380;4.654;2023-04-03T17:52:25;10.30;79.10
16907;DHT22;8570;52.380;4.654;2023-04-03T17:57:29;10.20;79.10
16907;DHT22;8570;52.380;4.654;2023-04-03T18:02:32;10.10;79.60
16907;DHT22;8570;52.380;4.654;2023-04-03T18:07:34;9.90;79.40
16907;DHT22;8570;52.380;4.654;2023-04-03T18:12:37;9.80;79.10
16907;DHT22;8570;52.380;4.654;2023-04-03T18:17:41;9.70;79.40
16907;DHT22;8570;52.380;4.654;2023-04-03T18:22:44;9.80;77.60
16907;DHT22;8570;52.380;4.654;2023-04-03T18:27:48;9.80;78.30
16907;DHT22;8570;52.380;4.654;2023-04-03T18:32:51;9.60;79.70
16907;DHT22;8570;52.380;4.654;2023-04-03T18:37:53;9.50;79.40
16907;DHT22;8570;52.380;4.654;2023-04-03T18:42:56;9.30;80.00
16907;DHT22;8570;52.380;4.654;2023-04-03T18:47:58;9.20;80.40
16907;DHT22;8570;52.380;4.654;2023-04-03T18:53:00;9.10;80.70
16907;DHT22;8570;52.380;4.654;2023-04-03T18:58:04;8.90;82.20
16907;DHT22;8570;52.380;4.654;2023-04-03T19:03:06;8.90;82.80
16907;DHT22;8570;52.380;4.654;2023-04-03T19:08:08;8.80;83.10
16907;DHT22;8570;52.380;4.654;2023-04-03T19:13:13;8.70;83.30
16907;DHT22;8570;52.380;4.654;2023-04-03T19:18:15;8.60;83.60
16907;DHT22;8570;52.380;4.654;2023-04-03T19:23:17;8.50;83.90
16907;DHT22;8570;52.380;4.654;2023-04-03T19:28:23;8.40;84.00
16907;DHT22;8570;52.380;4.654;2023-04-03T19:33:26;8.30;84.20
16907;DHT22;8570;52.380;4.654;2023-04-03T19:38:28;8.30;84.70
16907;DHT22;8570;52.380;4.654;2023-04-03T19:43:31;8.20;84.90
16907;DHT22;8570;52.380;4.654;2023-04-03T19:48:33;8.10;85.40
16907;DHT22;8570;52.380;4.654;2023-04-03T19:53:35;8.10;86.00
16907;DHT22;8570;52.380;4.654;2023-04-03T19:58:39;8.00;86.40
16907;DHT22;8570;52.380;4.654;2023-04-03T20:03:41;8.00;86.80
16907;DHT22;8570;52.380;4.654;2023-04-03T20:08:43;7.90;87.10
16907;DHT22;8570;52.380;4.654;2023-04-03T20:13:49;7.90;87.50
16907;DHT22;8570;52.380;4.654;2023-04-03T20:18:51;7.80;87.90
16907;DHT22;8570;52.380;4.654;2023-04-03T20:23:54;7.70;88.10
16907;DHT22;8570;52.380;4.654;2023-04-03T20:28:59;7.70;88.40
16907;DHT22;8570;52.380;4.654;2023-04-03T20:34:02;7.60;88.80
16907;DHT22;8570;52.380;4.654;2023-04-03T20:39:04;7.50;89.00
16907;DHT22;8570;52.380;4.654;2023-04-03T20:44:07;7.50;89.40
16907;DHT22;8570;52.380;4.654;2023-04-03T20:49:10;7.40;89.90
16907;DHT22;8570;52.380;4.654;2023-04-03T20:54:12;7.40;90.20
16907;DHT22;8570;52.380;4.654;2023-04-03T20:59:15;7.30;90.30
16907;DHT22;8570;52.380;4.654;2023-04-03T21:04:22;7.20;90.60
16907;DHT22;8570;52.380;4.654;2023-04-03T21:20:46;6.90;91.80
16907;DHT22;8570;52.380;4.654;2023-04-03T21:25:48;6.80;92.30
16907;DHT22;8570;52.380;4.654;2023-04-03T21:30:50;6.70;92.80
16907;DHT22;8570;52.380;4.654;2023-04-03T21:35:53;6.60;93.20
16907;DHT22;8570;52.380;4.654;2023-04-03T21:40:58;6.60;93.80
16907;DHT22;8570;52.380;4.654;2023-04-03T21:46:00;6.50;94.30
16907;DHT22;8570;52.380;4.654;2023-04-03T21:51:04;6.40;94.70
16907;DHT22;8570;52.380;4.654;2023-04-03T21:56:06;6.40;95.00
16907;DHT22;8570;52.380;4.654;2023-04-03T22:01:09;6.30;95.30
16907;DHT22;8570;52.380;4.654;2023-04-03T22:06:13;6.30;95.50
16907;DHT22;8570;52.380;4.654;2023-04-03T22:11:16;6.20;95.90
16907;DHT22;8570;52.380;4.654;2023-04-03T22:16:18;6.20;96.00
16907;DHT22;8570;52.380;4.654;2023-04-03T22:21:24;6.20;96.20
16907;DHT22;8570;52.380;4.654;2023-04-03T22:26:27;6.10;96.30
16907;DHT22;8570;52.380;4.654;2023-04-03T22:31:30;6.10;96.40
16907;DHT22;8570;52.380;4.654;2023-04-03T22:36:33;6.10;96.50
16907;DHT22;8570;52.380;4.654;2023-04-03T22:41:35;6.00;96.50
16907;DHT22;8570;52.380;4.654;2023-04-03T22:46:38;6.00;96.60
16907;DHT22;8570;52.380;4.654;2023-04-03T22:51:42;5.90;96.70
16907;DHT22;8570;52.380;4.654;2023-04-03T22:56:44;5.90;96.60
16907;DHT22;8570;52.380;4.654;2023-04-03T23:01:46;5.80;96.50
16907;DHT22;8570;52.380;4.654;2023-04-03T23:06:49;5.80;96.50
16907;DHT22;8570;52.380;4.654;2023-04-03T23:11:51;5.80;96.50
16907;DHT22;8570;52.380;4.654;2023-04-03T23:16:53;5.70;96.40
16907;DHT22;8570;52.380;4.654;2023-04-03T23:22:02;5.70;96.40
16907;DHT22;8570;52.380;4.654;2023-04-03T23:27:05;5.60;96.70
16907;DHT22;8570;52.380;4.654;2023-04-03T23:32:07;5.60;96.40
16907;DHT22;8570;52.380;4.654;2023-04-03T23:37:12;5.50;96.50
16907;DHT22;8570;52.380;4.654;2023-04-03T23:42:14;5.50;96.60
16907;DHT22;8570;52.380;4.654;2023-04-03T23:47:16;5.40;96.60
16907;DHT22;8570;52.380;4.654;2023-04-03T23:52:20;5.40;96.60
16907;DHT22;8570;52.380;4.654;2023-04-03T23:57:22;5.40;96.70
